Terminal Aerodrome Forecast
Issued by NWS

Home | Current Version | Previous Version | Text Only | Print | Product List | Glossary On
Versions: 1 2 3 4 5 6 7 8 9 10 11 12 13 14 15 16 17 18 19 20
000
FTUS46 KLOX 281723
TAFVNY
TAF
KVNY 281723Z 2818/2918 VRB03KT P6SM SCT080 SCT150
     FM282000 15010KT P6SM SCT080
     FM290300 VRB03KT P6SM SKC
     FM291300 VRB03KT P6SM OVC013=

USA.gov is the U.S. government's official web portal to all federal, state and local government web resources and services.